createdAt,value
2018-04-12T00:00:52.018Z,53.80
2018-04-12T00:01:52.104Z,55.50
2018-04-12T00:02:51.966Z,54.50
2018-04-12T00:03:51.957Z,54.30
2018-04-12T00:04:53.038Z,55.30
2018-04-12T00:05:51.902Z,56.00
2018-04-12T00:06:51.906Z,53.90
2018-04-12T00:07:51.879Z,55.60
2018-04-12T00:08:51.829Z,51.80
2018-04-12T00:09:51.800Z,54.10
2018-04-12T00:10:51.767Z,53.60
2018-04-12T00:11:51.753Z,52.50
2018-04-12T00:12:51.724Z,52.40
2018-04-12T00:13:52.758Z,51.40
2018-04-12T00:14:51.696Z,52.90
2018-04-12T00:15:51.746Z,51.60
2018-04-12T00:16:51.646Z,52.10
2018-04-12T00:17:51.672Z,52.30
2018-04-12T00:18:51.595Z,51.70
2018-04-12T00:19:58.440Z,51.50
2018-04-12T00:20:51.532Z,50.70
2018-04-12T00:21:51.518Z,49.80
2018-04-12T00:22:51.597Z,49.70
2018-04-12T00:23:51.474Z,50.30
2018-04-12T00:24:51.511Z,50.00
2018-04-12T00:25:51.413Z,48.50
2018-04-12T00:26:52.442Z,48.90
2018-04-12T00:27:51.368Z,49.60
2018-04-12T00:28:52.476Z,48.20
2018-04-12T00:29:51.317Z,49.30
2018-04-12T00:30:55.837Z,48.90
2018-04-12T00:31:51.291Z,48.70
2018-04-12T00:32:51.353Z,48.70
2018-04-12T00:33:51.211Z,47.90
2018-04-12T00:34:51.269Z,47.80
2018-04-12T00:35:51.171Z,49.10
2018-04-12T00:36:53.267Z,47.30
2018-04-12T00:37:51.124Z,49.00
2018-04-12T00:38:51.242Z,47.80
2018-04-12T00:39:51.083Z,47.40
2018-04-12T00:40:51.099Z,47.00
2018-04-12T00:41:51.054Z,47.10
2018-04-12T00:42:51.127Z,47.60
2018-04-12T00:43:50.999Z,44.80
2018-04-12T00:44:52.074Z,47.20
2018-04-12T00:45:50.916Z,45.30
2018-04-12T00:46:50.942Z,46.50
2018-04-12T00:47:50.892Z,45.50
2018-04-12T00:49:01.902Z,47.20
2018-04-12T00:49:50.852Z,47.70
2018-04-12T00:50:55.351Z,47.20
2018-04-12T00:51:50.801Z,47.70
2018-04-12T00:52:51.813Z,47.10
2018-04-12T00:53:50.768Z,46.40
2018-04-12T00:54:51.863Z,46.50
2018-04-12T00:55:50.719Z,49.50
2018-04-12T00:56:50.815Z,48.00
2018-04-12T00:57:50.651Z,47.10
2018-04-12T00:58:50.688Z,47.70
2018-04-12T00:59:50.637Z,46.60
2018-04-12T01:00:56.441Z,47.40
2018-04-12T01:01:50.573Z,46.50
2018-04-12T01:02:52.542Z,46.80
2018-04-12T01:03:50.495Z,44.80
2018-04-12T01:04:50.473Z,47.30
2018-04-12T01:05:50.553Z,47.40
2018-04-12T01:06:50.419Z,46.90
2018-04-12T01:07:50.420Z,46.80
2018-04-12T01:08:50.434Z,47.00
2018-04-12T01:09:50.353Z,46.30
2018-04-12T01:10:50.356Z,47.50
2018-04-12T01:11:50.303Z,46.40
2018-04-12T01:12:50.265Z,45.50
2018-04-12T01:13:50.253Z,47.10
2018-04-12T01:14:50.238Z,45.70
2018-04-12T01:15:50.234Z,45.60
2018-04-12T01:16:50.177Z,45.70
2018-04-12T01:17:50.185Z,45.10
2018-04-12T01:18:50.135Z,45.40
2018-04-12T01:19:50.113Z,45.60
2018-04-12T01:20:50.093Z,45.50
2018-04-12T01:21:50.058Z,45.10
2018-04-12T01:22:50.029Z,43.70
2018-04-12T01:23:50.010Z,44.30
2018-04-12T01:24:50.016Z,45.00
2018-04-12T01:25:49.964Z,43.40
2018-04-12T01:26:49.940Z,43.90
2018-04-12T01:27:49.933Z,43.60
2018-04-12T01:28:50.949Z,44.00
2018-04-12T01:29:49.875Z,44.30
2018-04-12T01:30:49.942Z,43.60
2018-04-12T01:31:49.832Z,44.30
2018-04-12T01:32:49.850Z,42.40
2018-04-12T01:33:49.764Z,42.70
2018-04-12T01:34:54.370Z,44.30
2018-04-12T01:35:49.733Z,45.10
2018-04-12T01:36:49.777Z,42.80
2018-04-12T01:37:49.687Z,43.50
2018-04-12T01:38:51.743Z,43.60
2018-04-12T01:39:49.641Z,43.70
2018-04-12T01:40:49.707Z,45.00
2018-04-12T01:41:49.596Z,43.60
2018-04-12T01:42:50.639Z,45.20
2018-04-12T01:43:49.541Z,43.20
2018-04-12T01:44:54.441Z,43.70
2018-04-12T01:45:49.475Z,43.90
2018-04-12T01:46:56.398Z,43.30
2018-04-12T01:47:49.440Z,43.70
2018-04-12T01:48:50.518Z,43.50
2018-04-12T01:49:49.372Z,44.20
2018-04-12T01:50:49.408Z,43.80
2018-04-12T01:51:49.339Z,43.50
2018-04-12T01:52:49.429Z,43.90
2018-04-12T01:53:49.293Z,43.40
2018-04-12T01:54:49.245Z,44.10
2018-04-12T01:55:49.231Z,42.00
2018-04-12T01:56:49.277Z,43.80
2018-04-12T01:57:49.169Z,42.90
2018-04-12T01:58:49.146Z,43.60
2018-04-12T01:59:49.133Z,44.60
2018-04-12T02:00:49.113Z,44.20
2018-04-12T02:01:49.081Z,44.40
2018-04-12T02:02:49.059Z,43.90
2018-04-12T02:03:49.033Z,45.00
2018-04-12T02:04:49.003Z,45.10
2018-04-12T02:05:48.991Z,42.90
2018-04-12T02:06:48.949Z,43.50
2018-04-12T02:07:48.932Z,43.50
2018-04-12T02:08:48.918Z,43.00
2018-04-12T02:09:48.897Z,44.60
2018-04-12T02:10:50.998Z,45.70
2018-04-12T02:11:48.863Z,44.80
2018-04-12T02:12:49.864Z,44.00
2018-04-12T02:13:48.799Z,45.30
2018-04-12T02:14:53.464Z,45.00
2018-04-12T02:15:48.744Z,45.10
2018-04-12T02:16:50.801Z,46.50
2018-04-12T02:17:48.691Z,44.60
2018-04-12T02:18:48.785Z,46.10
2018-04-12T02:19:48.670Z,45.70
2018-04-12T02:20:49.711Z,45.70
2018-04-12T02:21:48.608Z,46.40
2018-04-12T02:22:48.624Z,45.70
2018-04-12T02:23:48.620Z,45.60
2018-04-12T02:24:48.530Z,45.10
2018-04-12T02:25:48.521Z,45.10
2018-04-12T02:27:01.462Z,44.00
2018-04-12T02:27:48.450Z,45.10
2018-04-12T02:28:48.558Z,45.40
2018-04-12T02:29:48.393Z,43.80
2018-04-12T02:30:48.458Z,45.20
2018-04-12T02:31:48.361Z,46.00
2018-04-12T02:32:52.953Z,45.20
2018-04-12T02:33:48.324Z,46.20
2018-04-12T02:34:48.420Z,45.80
2018-04-12T02:35:48.234Z,45.80
2018-04-12T02:36:59.987Z,46.20
2018-04-12T02:37:48.199Z,46.60
2018-04-12T02:38:52.909Z,45.90
2018-04-12T02:39:48.196Z,48.20
2018-04-12T02:40:48.221Z,45.80
2018-04-12T02:41:48.103Z,47.70
2018-04-12T02:42:59.906Z,46.70
2018-04-12T02:43:48.067Z,47.80
2018-04-12T02:44:48.127Z,47.20
2018-04-12T02:45:48.037Z,47.30
2018-04-12T02:46:50.144Z,46.80
2018-04-12T02:47:47.971Z,48.40
2018-04-12T02:48:48.050Z,46.20
2018-04-12T02:49:47.911Z,48.00
2018-04-12T02:50:47.894Z,48.50
2018-04-12T02:51:52.495Z,48.30
2018-04-12T02:52:47.847Z,48.30
2018-04-12T02:53:47.807Z,47.90
2018-04-12T02:54:47.787Z,48.40
2018-04-12T02:55:47.839Z,48.60
2018-04-12T02:56:47.746Z,47.80
2018-04-12T02:57:47.711Z,47.30
2018-04-12T02:58:47.693Z,48.40
2018-04-12T02:59:47.661Z,48.50
2018-04-12T03:00:47.713Z,47.70
2018-04-12T03:01:47.623Z,48.30
2018-04-12T03:02:47.582Z,47.00
2018-04-12T03:03:47.602Z,47.80
2018-04-12T03:04:47.546Z,47.40
2018-04-12T03:05:47.511Z,49.90
2018-04-12T03:06:47.500Z,48.50
2018-04-12T03:07:47.489Z,47.80
2018-04-12T03:08:47.458Z,47.70
2018-04-12T03:09:47.431Z,48.60
2018-04-12T03:10:47.418Z,49.70
2018-04-12T03:11:47.361Z,48.80
2018-04-12T03:12:47.344Z,48.60
2018-04-12T03:13:47.307Z,48.60
2018-04-12T03:14:47.302Z,48.30
2018-04-12T03:15:47.273Z,49.70
2018-04-12T03:16:47.264Z,47.60
2018-04-12T03:17:47.335Z,49.80
2018-04-12T03:18:47.195Z,48.60
2018-04-12T03:19:47.183Z,47.70
2018-04-12T03:20:47.171Z,48.00
2018-04-12T03:21:47.127Z,47.10
2018-04-12T03:22:47.104Z,47.70
2018-04-12T03:23:47.078Z,49.70
2018-04-12T03:24:47.068Z,48.20
2018-04-12T03:25:47.021Z,47.30
2018-04-12T03:26:47.020Z,49.90
2018-04-12T03:27:47.008Z,48.10
2018-04-12T03:28:47.006Z,46.80
2018-04-12T03:29:46.983Z,48.90
2018-04-12T03:30:46.922Z,50.00
2018-04-12T03:31:46.958Z,49.50
2018-04-12T03:32:46.857Z,47.60
2018-04-12T03:33:46.846Z,49.10
2018-04-12T03:34:46.869Z,49.40
2018-04-12T03:35:46.776Z,48.60
2018-04-12T03:36:46.764Z,47.80
2018-04-12T03:37:46.741Z,49.70
2018-04-12T03:38:46.737Z,48.30
2018-04-12T03:39:46.702Z,48.70
2018-04-12T03:40:46.672Z,50.20
2018-04-12T03:41:46.714Z,49.70
2018-04-12T03:42:46.602Z,50.90
2018-04-12T03:43:48.598Z,50.20
2018-04-12T03:44:46.588Z,48.40
2018-04-12T03:45:53.438Z,50.70
2018-04-12T03:46:46.515Z,49.60
2018-04-12T03:47:46.604Z,50.60
2018-04-12T03:48:46.470Z,49.80
2018-04-12T03:49:46.507Z,49.40
2018-04-12T03:50:47.536Z,50.70
2018-04-12T03:51:46.404Z,51.70
2018-04-12T03:53:02.915Z,50.60
2018-04-12T03:53:46.334Z,51.00
2018-04-12T03:54:46.315Z,51.60
2018-04-12T03:55:57.909Z,52.60
2018-04-12T03:56:46.297Z,51.70
2018-04-12T03:57:48.312Z,52.30
2018-04-12T03:58:46.211Z,51.60
2018-04-12T03:59:46.294Z,51.70
2018-04-12T04:00:46.163Z,52.50
2018-04-12T04:01:50.999Z,51.80
2018-04-12T04:02:46.153Z,52.60
2018-04-12T04:03:46.125Z,53.60
2018-04-12T04:04:46.068Z,53.50
2018-04-12T04:05:51.988Z,53.40
2018-04-12T04:06:46.016Z,51.30
2018-04-12T04:07:56.895Z,52.20
2018-04-12T04:08:45.980Z,53.20
2018-04-12T04:09:52.970Z,53.50
2018-04-12T04:10:45.911Z,52.70
2018-04-12T04:11:45.922Z,54.00
2018-04-12T04:12:45.895Z,53.50
2018-04-12T04:13:45.933Z,51.70
2018-04-12T04:14:45.814Z,53.20
2018-04-12T04:15:51.473Z,53.20
2018-04-12T04:16:45.787Z,53.00
2018-04-12T04:17:51.509Z,53.50
2018-04-12T04:18:45.704Z,53.70
2018-04-12T04:19:52.442Z,55.40
2018-04-12T04:20:45.693Z,54.30
2018-04-12T04:21:46.723Z,54.40
2018-04-12T04:22:45.617Z,56.20
2018-04-12T04:23:51.456Z,54.90
2018-04-12T04:24:45.567Z,56.20
2018-04-12T04:25:47.561Z,55.20
2018-04-12T04:26:45.560Z,52.90
2018-04-12T04:27:46.584Z,55.90
2018-04-12T04:28:45.469Z,56.40
2018-04-12T04:29:46.489Z,54.10
2018-04-12T04:30:45.418Z,55.30
2018-04-12T04:31:49.997Z,56.00
2018-04-12T04:32:45.419Z,56.30
2018-04-12T04:33:45.446Z,58.20
2018-04-12T04:34:45.331Z,56.10
2018-04-12T04:35:45.293Z,56.40
2018-04-12T04:36:45.293Z,56.20
2018-04-12T04:37:45.236Z,54.30
2018-04-12T04:38:45.240Z,57.00
2018-04-12T04:39:45.209Z,58.80
2018-04-12T04:40:45.179Z,57.90
2018-04-12T04:41:45.135Z,57.00
2018-04-12T04:42:45.132Z,57.80
2018-04-12T04:43:45.097Z,58.10
2018-04-12T04:44:45.080Z,59.10
2018-04-12T04:45:45.030Z,57.50
2018-04-12T04:46:45.022Z,55.90
2018-04-12T04:47:45.040Z,58.10
2018-04-12T04:48:44.964Z,57.80
2018-04-12T04:49:44.964Z,57.10
2018-04-12T04:50:50.031Z,57.30
2018-04-12T04:51:44.911Z,56.90
2018-04-12T04:52:45.934Z,56.90
2018-04-12T04:53:44.873Z,56.80
2018-04-12T04:54:44.913Z,58.90
2018-04-12T04:55:44.790Z,57.40
2018-04-12T04:56:46.886Z,59.30
2018-04-12T04:57:44.834Z,58.00
2018-04-12T04:58:49.598Z,57.00
2018-04-12T04:59:44.697Z,57.20
2018-04-12T05:00:44.672Z,57.70
2018-04-12T05:01:44.728Z,57.80
2018-04-12T05:02:44.618Z,57.30
2018-04-12T05:03:51.509Z,58.40
2018-04-12T05:04:44.581Z,58.40
2018-04-12T05:05:57.465Z,57.80
2018-04-12T05:06:44.519Z,58.90
2018-04-12T05:07:50.500Z,56.60
2018-04-12T05:08:44.455Z,57.90
2018-04-12T05:09:45.504Z,56.70
2018-04-12T05:10:44.413Z,58.60
2018-04-12T05:11:44.445Z,56.60
2018-04-12T05:12:44.380Z,57.20
2018-04-12T05:13:44.332Z,58.30
2018-04-12T05:14:44.313Z,58.30
2018-04-12T05:15:44.334Z,59.10
2018-04-12T05:16:44.267Z,58.20
2018-04-12T05:17:44.250Z,57.50
2018-04-12T05:18:44.217Z,59.10
2018-04-12T05:19:44.212Z,59.10
2018-04-12T05:20:44.167Z,59.30
2018-04-12T05:21:44.151Z,58.20
2018-04-12T05:22:44.115Z,59.40
2018-04-12T05:23:46.157Z,60.00
2018-04-12T05:24:44.084Z,60.00
2018-04-12T05:25:54.991Z,61.50
2018-04-12T05:26:44.024Z,60.80
2018-04-12T05:27:44.031Z,60.50
2018-04-12T05:28:43.989Z,62.20
2018-04-12T05:29:44.024Z,59.40
2018-04-12T05:30:43.932Z,61.30
2018-04-12T05:31:46.049Z,60.20
2018-04-12T05:32:43.898Z,63.50
2018-04-12T05:33:45.036Z,61.50
2018-04-12T05:34:43.871Z,62.00
2018-04-12T05:35:45.907Z,60.40
2018-04-12T05:36:43.769Z,60.50
2018-04-12T05:37:43.771Z,63.50
2018-04-12T05:38:43.740Z,62.50
2018-04-12T05:39:43.748Z,62.30
2018-04-12T05:40:43.683Z,62.50
2018-04-12T05:41:49.488Z,61.20
2018-04-12T05:42:43.700Z,59.40
2018-04-12T05:43:54.518Z,61.50
2018-04-12T05:44:43.567Z,63.00
2018-04-12T05:45:43.575Z,60.70
2018-04-12T05:46:43.551Z,63.00
2018-04-12T05:47:48.507Z,60.80
2018-04-12T05:48:43.483Z,64.10
2018-04-12T05:49:49.477Z,61.60
2018-04-12T05:50:43.407Z,63.20
2018-04-12T05:51:43.553Z,64.20
2018-04-12T05:52:43.373Z,61.50
2018-04-12T05:53:43.511Z,61.30
2018-04-12T05:54:43.316Z,60.90
2018-04-12T05:55:43.337Z,62.00
2018-04-12T05:56:43.337Z,63.40
2018-04-12T05:57:43.428Z,60.70
2018-04-12T05:58:43.301Z,63.00
2018-04-12T05:59:59.024Z,62.00
2018-04-12T06:00:43.180Z,62.80
2018-04-12T06:01:43.173Z,62.10
2018-04-12T06:02:43.159Z,59.80
2018-04-12T06:03:43.090Z,60.40
2018-04-12T06:04:43.070Z,60.10
2018-04-12T06:05:43.055Z,60.70
2018-04-12T06:06:43.149Z,58.60
2018-04-12T06:07:43.011Z,59.60
2018-04-12T06:08:42.996Z,61.30
2018-04-12T06:09:42.931Z,58.70
2018-04-12T06:10:42.906Z,60.80
2018-04-12T06:11:42.903Z,59.60
2018-04-12T06:12:42.931Z,58.40
2018-04-12T06:13:42.826Z,57.60
2018-04-12T06:14:42.854Z,58.30
2018-04-12T06:15:42.851Z,57.80
2018-04-12T06:16:42.756Z,58.10
2018-04-12T06:17:42.805Z,58.50
2018-04-12T06:18:42.706Z,58.20
2018-04-12T06:19:42.888Z,56.40
2018-04-12T06:20:42.689Z,57.00
2018-04-12T06:21:42.669Z,56.30
2018-04-12T06:22:42.642Z,57.10
2018-04-12T06:23:42.614Z,56.30
2018-04-12T06:24:42.579Z,56.30
2018-04-12T06:25:42.616Z,55.10
2018-04-12T06:26:42.581Z,55.80
2018-04-12T06:27:42.472Z,56.00
2018-04-12T06:28:42.487Z,54.90
2018-04-12T06:29:42.446Z,52.60
2018-04-12T06:30:42.440Z,54.70
2018-04-12T06:31:42.435Z,55.90
2018-04-12T06:32:42.386Z,53.30
2018-04-12T06:33:42.383Z,52.80
2018-04-12T06:34:42.307Z,55.30
2018-04-12T06:35:42.311Z,54.00
2018-04-12T06:36:42.305Z,54.30
2018-04-12T06:37:42.259Z,55.90
2018-04-12T06:38:43.334Z,54.60
2018-04-12T06:39:42.204Z,55.80
2018-04-12T06:40:42.183Z,55.30
2018-04-12T06:41:42.156Z,52.40
2018-04-12T06:42:43.135Z,54.40
2018-04-12T06:43:42.099Z,53.50
2018-04-12T06:44:42.054Z,52.80
2018-04-12T06:45:42.040Z,53.20
2018-04-12T06:46:42.086Z,52.40
2018-04-12T06:47:41.969Z,53.70
2018-04-12T06:48:42.120Z,53.10
2018-04-12T06:49:41.951Z,52.40
2018-04-12T06:50:41.921Z,54.50
2018-04-12T06:51:41.888Z,53.60
2018-04-12T06:52:41.846Z,53.50
2018-04-12T06:53:41.973Z,53.60
2018-04-12T06:54:41.868Z,52.60
2018-04-12T06:55:41.787Z,53.80
2018-04-12T06:56:41.768Z,53.70
2018-04-12T06:57:41.738Z,53.20
2018-04-12T06:58:41.720Z,54.10
2018-04-12T06:59:41.694Z,53.70
2018-04-12T07:00:41.738Z,52.60
2018-04-12T07:01:41.681Z,52.50
2018-04-12T07:02:41.609Z,53.10
2018-04-12T07:03:41.590Z,52.90
2018-04-12T07:04:41.598Z,52.00
2018-04-12T07:05:41.525Z,51.30
2018-04-12T07:06:41.545Z,52.00
2018-04-12T07:07:41.488Z,50.70
2018-04-12T07:08:41.458Z,53.20
2018-04-12T07:09:41.459Z,52.60
2018-04-12T07:10:41.401Z,53.10
2018-04-12T07:11:41.474Z,52.40
2018-04-12T07:12:41.344Z,52.30
2018-04-12T07:13:41.349Z,51.70
2018-04-12T07:14:41.307Z,51.90
2018-04-12T07:15:41.272Z,52.70
2018-04-12T07:16:41.375Z,52.50
2018-04-12T07:17:41.225Z,50.70
2018-04-12T07:18:41.227Z,50.30
2018-04-12T07:19:41.177Z,50.40
2018-04-12T07:20:41.151Z,47.30
2018-04-12T07:21:41.161Z,50.80
2018-04-12T07:22:41.127Z,48.60
2018-04-12T07:23:41.115Z,49.20
2018-04-12T07:24:41.075Z,48.50
2018-04-12T07:25:41.029Z,48.10
2018-04-12T07:26:40.985Z,46.40
2018-04-12T07:27:41.017Z,48.80
2018-04-12T07:28:45.975Z,49.50
2018-04-12T07:29:40.965Z,47.00
2018-04-12T07:30:55.547Z,48.50
2018-04-12T07:31:40.914Z,49.40
2018-04-12T07:32:40.956Z,48.70
2018-04-12T07:33:40.852Z,47.90
2018-04-12T07:34:42.875Z,47.90
2018-04-12T07:35:40.781Z,46.90
2018-04-12T07:36:42.875Z,48.20
2018-04-12T07:37:40.720Z,47.20
2018-04-12T07:38:45.572Z,49.40
2018-04-12T07:39:40.768Z,48.50
2018-04-12T07:40:42.825Z,47.10
2018-04-12T07:41:40.668Z,47.50
2018-04-12T07:42:47.586Z,46.70
2018-04-12T07:43:40.642Z,47.30
2018-04-12T07:44:40.590Z,46.30
2018-04-12T07:45:40.567Z,45.80
2018-04-12T07:46:40.523Z,46.20
2018-04-12T07:47:40.534Z,46.80
2018-04-12T07:48:57.595Z,46.80
2018-04-12T07:49:40.437Z,45.00
2018-04-12T07:50:45.067Z,47.10
2018-04-12T07:51:40.401Z,44.00
2018-04-12T07:52:41.505Z,43.10
2018-04-12T07:53:40.393Z,44.30
2018-04-12T07:54:42.399Z,41.70
2018-04-12T07:55:40.254Z,43.10
2018-04-12T07:57:06.057Z,42.20
2018-04-12T07:57:40.292Z,43.10
2018-04-12T07:59:02.253Z,41.00
2018-04-12T07:59:40.221Z,42.10
2018-04-12T08:01:05.026Z,40.40
2018-04-12T08:01:40.180Z,41.10
2018-04-12T08:02:47.062Z,41.60
2018-04-12T08:03:40.129Z,40.70
2018-04-12T08:04:40.179Z,40.40
2018-04-12T08:05:40.007Z,39.60
2018-04-12T08:06:55.100Z,39.30
2018-04-12T08:07:40.024Z,40.10
2018-04-12T08:09:00.988Z,39.30
2018-04-12T08:09:39.976Z,38.10
2018-04-12T08:10:39.891Z,40.20
2018-04-12T08:11:40.082Z,41.00
2018-04-12T08:12:39.841Z,38.90
2018-04-12T08:13:40.929Z,39.80
2018-04-12T08:14:39.785Z,40.60
2018-04-12T08:15:45.567Z,40.00
2018-04-12T08:16:39.783Z,40.00
2018-04-12T08:17:56.583Z,40.10
2018-04-12T08:18:39.718Z,39.80
2018-04-12T08:19:45.495Z,38.20
2018-04-12T08:20:39.828Z,40.20
2018-04-12T08:21:39.726Z,40.10
2018-04-12T08:22:45.577Z,39.20
2018-04-12T08:23:39.601Z,39.30
2018-04-12T08:24:45.546Z,38.50
2018-04-12T08:25:43.057Z,39.90
2018-04-12T08:26:39.488Z,40.10
2018-04-12T08:27:39.533Z,39.20
2018-04-12T08:28:39.421Z,39.70
2018-04-12T08:29:39.402Z,39.60
2018-04-12T08:30:39.401Z,38.30
2018-04-12T08:31:39.595Z,39.60
2018-04-12T08:32:39.348Z,39.00
2018-04-12T08:33:39.317Z,39.10
2018-04-12T08:34:39.288Z,39.80
2018-04-12T08:35:39.250Z,38.90
2018-04-12T08:36:39.236Z,39.10
2018-04-12T08:37:39.212Z,39.30
2018-04-12T08:38:39.197Z,38.80
2018-04-12T08:39:39.199Z,38.80
2018-04-12T08:40:39.155Z,39.40
2018-04-12T08:41:39.092Z,39.90
2018-04-12T08:42:39.083Z,39.10
2018-04-12T08:43:39.064Z,38.80
2018-04-12T08:44:39.021Z,38.90
2018-04-12T08:45:38.990Z,40.40
2018-04-12T08:46:39.016Z,37.90
2018-04-12T08:47:38.982Z,38.00
2018-04-12T08:48:39.970Z,38.90
2018-04-12T08:49:38.907Z,38.80
2018-04-12T08:50:38.874Z,37.50
2018-04-12T08:51:38.855Z,37.40
2018-04-12T08:52:38.847Z,38.60
2018-04-12T08:53:38.797Z,39.50
2018-04-12T08:54:38.874Z,37.40
2018-04-12T08:55:38.749Z,38.40
2018-04-12T08:56:39.803Z,38.60
2018-04-12T08:57:38.733Z,38.40
2018-04-12T08:58:39.713Z,38.50
2018-04-12T08:59:38.690Z,39.00
2018-04-12T09:00:38.700Z,38.70
2018-04-12T09:01:38.590Z,39.10
2018-04-12T09:02:38.578Z,38.30
2018-04-12T09:03:38.575Z,38.10
2018-04-12T09:04:38.518Z,39.00
2018-04-12T09:05:38.665Z,37.30
2018-04-12T09:06:38.473Z,38.20
2018-04-12T09:07:38.569Z,39.00
2018-04-12T09:08:38.416Z,38.90
2018-04-12T09:09:38.386Z,37.70
2018-04-12T09:10:38.370Z,38.10
2018-04-12T09:11:38.358Z,37.50
2018-04-12T09:12:38.315Z,36.90
2018-04-12T09:13:38.305Z,38.00
2018-04-12T09:14:40.329Z,37.40
2018-04-12T09:15:38.240Z,38.20
2018-04-12T09:16:38.254Z,36.70
2018-04-12T09:17:38.197Z,37.40
2018-04-12T09:18:38.170Z,37.20
2018-04-12T09:19:38.178Z,38.40
2018-04-12T09:20:38.132Z,37.10
2018-04-12T09:21:38.107Z,36.60
2018-04-12T09:22:38.171Z,38.70
2018-04-12T09:23:38.065Z,36.10
2018-04-12T09:24:38.044Z,37.80
2018-04-12T09:25:38.009Z,35.50
2018-04-12T09:26:37.965Z,37.20
2018-04-12T09:27:39.077Z,35.60
2018-04-12T09:28:37.914Z,36.60
2018-04-12T09:29:37.989Z,36.40
2018-04-12T09:30:37.900Z,35.00
2018-04-12T09:31:37.841Z,35.90
2018-04-12T09:32:43.376Z,36.40
2018-04-12T09:33:37.791Z,35.80
2018-04-12T09:34:37.765Z,35.50
2018-04-12T09:35:37.733Z,34.70
2018-04-12T09:36:37.714Z,35.50
2018-04-12T09:37:39.795Z,34.30
2018-04-12T09:38:37.667Z,33.80
2018-04-12T09:39:37.649Z,32.80
2018-04-12T09:40:37.632Z,32.90
2018-04-12T09:41:37.695Z,33.40
2018-04-12T09:42:37.567Z,34.60
2018-04-12T09:43:37.569Z,33.30
2018-04-12T09:44:37.530Z,32.50
2018-04-12T09:45:37.622Z,33.10
2018-04-12T09:46:37.454Z,31.30
2018-04-12T09:47:37.493Z,32.60
2018-04-12T09:48:37.443Z,33.00
2018-04-12T09:49:39.477Z,32.10
2018-04-12T09:50:37.373Z,32.00
2018-04-12T09:51:37.416Z,32.90
2018-04-12T09:52:37.300Z,31.10
2018-04-12T09:53:38.347Z,31.40
2018-04-12T09:54:37.284Z,31.90
2018-04-12T09:55:37.347Z,30.70
2018-04-12T09:56:37.206Z,30.50
2018-04-12T09:57:37.250Z,31.40
2018-04-12T09:58:37.153Z,30.90
2018-04-12T09:59:37.167Z,31.90
2018-04-12T10:00:37.112Z,30.60
2018-04-12T10:01:37.076Z,30.40
2018-04-12T10:02:37.073Z,30.50
2018-04-12T10:03:37.054Z,30.40
2018-04-12T10:04:37.004Z,30.50
2018-04-12T10:05:37.140Z,30.80
2018-04-12T10:06:36.991Z,29.80
2018-04-12T10:07:37.012Z,30.80
2018-04-12T10:08:36.920Z,30.10
2018-04-12T10:09:36.917Z,30.70
2018-04-12T10:10:36.855Z,30.90
2018-04-12T10:11:36.844Z,29.30
2018-04-12T10:12:36.849Z,30.40
2018-04-12T10:13:36.783Z,31.60
2018-04-12T10:14:36.851Z,30.40
2018-04-12T10:15:36.743Z,30.40
2018-04-12T10:16:36.793Z,29.60
2018-04-12T10:17:36.694Z,28.70
2018-04-12T10:18:36.763Z,30.00
2018-04-12T10:19:36.684Z,30.40
2018-04-12T10:20:36.670Z,29.20
2018-04-12T10:21:36.593Z,29.20
2018-04-12T10:22:36.585Z,29.90
2018-04-12T10:23:36.592Z,28.90
2018-04-12T10:24:36.502Z,29.50
2018-04-12T10:25:36.583Z,28.30
2018-04-12T10:26:36.474Z,29.50
2018-04-12T10:27:36.506Z,28.60
2018-04-12T10:28:36.422Z,27.50
2018-04-12T10:29:36.419Z,28.60
2018-04-12T10:30:36.348Z,28.30
2018-04-12T10:31:36.437Z,28.20
2018-04-12T10:32:36.305Z,28.60
2018-04-12T10:33:36.362Z,28.40
2018-04-12T10:34:36.249Z,29.40
2018-04-12T10:35:36.220Z,28.20
2018-04-12T10:36:36.217Z,28.50
2018-04-12T10:37:36.182Z,27.80
2018-04-12T10:38:36.303Z,28.80
2018-04-12T10:39:36.128Z,28.80
2018-04-12T10:40:36.119Z,29.70
2018-04-12T10:41:36.125Z,29.10
2018-04-12T10:42:36.060Z,28.20
2018-04-12T10:43:36.024Z,28.40
2018-04-12T10:44:36.011Z,27.90
2018-04-12T10:45:35.986Z,30.40
2018-04-12T10:46:35.974Z,29.60
2018-04-12T10:47:35.922Z,29.30
2018-04-12T10:48:35.913Z,30.00
2018-04-12T10:49:36.045Z,27.50
2018-04-12T10:50:35.867Z,27.10
2018-04-12T10:51:35.959Z,29.60
2018-04-12T10:52:35.800Z,28.50
2018-04-12T10:53:35.970Z,28.80
2018-04-12T10:54:35.759Z,27.60
2018-04-12T10:55:36.908Z,27.90
2018-04-12T10:56:35.686Z,28.90
2018-04-12T10:57:35.818Z,28.00
2018-04-12T10:58:35.639Z,28.00
2018-04-12T10:59:35.641Z,26.70
2018-04-12T11:00:35.711Z,27.60
2018-04-12T11:01:35.571Z,27.90
2018-04-12T11:02:35.556Z,27.90
2018-04-12T11:03:35.530Z,28.90
2018-04-12T11:04:35.504Z,28.20
2018-04-12T11:05:35.640Z,28.20
2018-04-12T11:06:35.443Z,27.00
2018-04-12T11:07:35.415Z,27.20
2018-04-12T11:08:35.400Z,27.20
2018-04-12T11:09:35.377Z,27.70
2018-04-12T11:10:35.352Z,28.30
2018-04-12T11:11:35.316Z,28.40
2018-04-12T11:12:35.286Z,27.30
2018-04-12T11:13:35.269Z,26.10
2018-04-12T11:14:35.399Z,26.90
2018-04-12T11:15:35.244Z,27.50
2018-04-12T11:16:35.411Z,26.30
2018-04-12T11:17:35.281Z,26.70
2018-04-12T11:18:36.351Z,26.70
2018-04-12T11:19:35.132Z,27.30
2018-04-12T11:20:35.130Z,28.10
2018-04-12T11:21:35.093Z,26.40
2018-04-12T11:22:35.043Z,27.50
2018-04-12T11:23:35.079Z,28.20
2018-04-12T11:24:37.117Z,28.40
2018-04-12T11:25:35.054Z,29.00
2018-04-12T11:26:39.600Z,28.20
2018-04-12T11:27:34.957Z,28.60
2018-04-12T11:28:41.555Z,28.40
2018-04-12T11:29:34.979Z,28.80
2018-04-12T11:30:41.598Z,28.70
2018-04-12T11:31:34.871Z,29.80
2018-04-12T11:32:35.971Z,29.40
2018-04-12T11:33:34.834Z,28.10
2018-04-12T11:34:35.859Z,30.20
2018-04-12T11:35:34.804Z,29.10
2018-04-12T11:36:34.846Z,28.70
2018-04-12T11:37:34.719Z,28.20
2018-04-12T11:38:34.791Z,28.90
2018-04-12T11:39:34.718Z,28.70
2018-04-12T11:40:35.806Z,29.10
2018-04-12T11:41:34.593Z,29.50
2018-04-12T11:42:55.810Z,30.50
2018-04-12T11:43:34.611Z,29.90
2018-04-12T11:44:34.553Z,31.60
2018-04-12T11:45:41.120Z,29.40
2018-04-12T11:46:34.481Z,30.50
2018-04-12T11:48:46.872Z,28.90
2018-04-12T11:50:08.035Z,29.40
2018-04-12T11:50:46.835Z,29.40
2018-04-12T11:52:03.746Z,29.60
2018-04-12T11:52:46.861Z,29.90
2018-04-12T11:54:10.824Z,29.70
2018-04-12T11:54:46.735Z,30.00
2018-04-12T11:56:15.836Z,29.80
2018-04-12T11:56:46.694Z,29.90
2018-04-12T11:57:52.772Z,29.80
2018-04-12T11:58:46.607Z,29.30
2018-04-12T11:59:53.302Z,30.80
2018-04-12T12:00:46.610Z,28.90
2018-04-12T12:02:16.309Z,30.20
2018-04-12T12:02:46.602Z,30.00
2018-04-12T12:03:47.730Z,30.20
2018-04-12T12:04:46.493Z,30.40
2018-04-12T12:06:01.239Z,29.90
2018-04-12T12:06:46.392Z,29.30
2018-04-12T12:07:48.432Z,28.90
2018-04-12T12:08:46.406Z,28.80
2018-04-12T12:10:11.197Z,29.40
2018-04-12T12:10:46.398Z,29.50
2018-04-12T12:11:52.175Z,29.50
2018-04-12T12:12:46.306Z,29.30
2018-04-12T12:13:59.179Z,30.40
2018-04-12T12:14:46.229Z,30.40
2018-04-12T12:16:03.165Z,31.20
2018-04-12T12:16:46.179Z,29.60
2018-04-12T12:17:46.198Z,31.10
2018-04-12T12:18:48.272Z,31.00
2018-04-12T12:19:46.098Z,31.10
2018-04-12T12:20:51.704Z,30.10
2018-04-12T12:21:46.056Z,30.00
2018-04-12T12:22:48.036Z,29.80
2018-04-12T12:23:45.997Z,30.70
2018-04-12T12:24:48.091Z,31.80
2018-04-12T12:25:45.966Z,30.80
2018-04-12T12:39:24.775Z,30.60
2018-04-12T12:40:22.933Z,31.60
2018-04-12T12:41:29.829Z,32.00
2018-04-12T12:42:22.862Z,32.80
2018-04-12T12:43:27.817Z,32.00
2018-04-12T12:44:22.798Z,33.00
2018-04-12T12:45:24.888Z,33.00
2018-04-12T12:46:22.794Z,31.80
2018-04-12T12:47:34.325Z,33.70
2018-04-12T12:48:22.717Z,34.30
2018-04-12T12:49:29.317Z,33.30
2018-04-12T12:50:22.672Z,34.00
2018-04-12T12:51:27.367Z,32.50
2018-04-12T12:52:22.653Z,34.00
2018-04-12T12:53:22.722Z,34.20
2018-04-12T12:54:22.560Z,33.30
2018-04-12T12:55:22.527Z,33.90
2018-04-12T12:56:22.503Z,34.00
2018-04-12T12:57:22.493Z,32.80
2018-04-12T12:58:22.484Z,33.50
2018-04-12T12:59:22.436Z,33.50
2018-04-12T13:00:22.472Z,33.30
2018-04-12T13:01:22.427Z,34.70
2018-04-12T13:02:22.480Z,34.00
2018-04-12T13:03:22.341Z,33.80
2018-04-12T13:04:22.340Z,33.40
2018-04-12T13:05:22.417Z,33.60
2018-04-12T13:06:22.271Z,33.10